Bridger, Montana
Current Conditions -  °F | °C
As of 11:35 AM on Sunday 21 Dec 2014 (Local Time) from KPOY Reporting Station
Broken Clouds Broken Clouds  
Wind Chill: -2°   Ceiling: 7000
Heat Index:   Visibility: 10mi
Dew Point: -3°   Wind: 8mph
Humidity: 70%   Direction: 120°ESE
Pressure: 29.47"   Gusts: NA
Location:  45.3°N, 108.91°W
Report Text: KPOY 211835Z AUTO 12007KT 10SM SCT060 BKN070 BKN120 02/M03 A2947 RMK AO2
Loading
Personal Weather Stations






























Interactive Weather Map New forecast layout! Learn more

10-Day Weather Forecast

Advertisements
Track Severe Weather on mobile